createdAt,value
2023-04-15T00:00:58.489Z,10.60
2023-04-15T00:03:25.523Z,10.54
2023-04-15T00:05:52.104Z,10.60
2023-04-15T00:08:18.612Z,10.57
2023-04-15T00:10:46.484Z,10.59
2023-04-15T00:13:13.100Z,10.54
2023-04-15T00:15:39.510Z,10.42
2023-04-15T00:18:07.390Z,10.44
2023-04-15T00:20:34.354Z,10.45
2023-04-15T00:23:02.573Z,10.43
2023-04-15T00:25:29.138Z,10.34
2023-04-15T00:27:55.567Z,10.30
2023-04-15T00:30:22.077Z,10.34
2023-04-15T00:32:49.420Z,10.27
2023-04-15T00:35:16.514Z,10.22
2023-04-15T00:37:44.808Z,10.27
2023-04-15T00:40:13.642Z,10.24
2023-04-15T00:42:40.045Z,10.35
2023-04-15T00:45:07.307Z,10.35
2023-04-15T00:47:35.522Z,10.24
2023-04-15T00:50:02.272Z,10.30
2023-04-15T00:52:28.648Z,10.31
2023-04-15T00:54:55.677Z,10.16
2023-04-15T00:57:22.739Z,10.24
2023-04-15T00:59:49.210Z,10.18
2023-04-15T01:02:16.482Z,10.23
2023-04-15T01:04:43.504Z,10.52
2023-04-15T01:07:09.905Z,10.55
2023-04-15T01:09:36.439Z,10.58
2023-04-15T01:12:04.050Z,10.54
2023-04-15T01:14:30.660Z,10.60
2023-04-15T01:16:57.575Z,10.67
2023-04-15T01:19:24.136Z,10.55
2023-04-15T01:21:50.661Z,10.69
2023-04-15T01:24:18.444Z,10.64
2023-04-15T01:26:45.240Z,10.68
2023-04-15T01:29:11.653Z,10.60
2023-04-15T01:31:38.608Z,10.59
2023-04-15T01:34:05.018Z,10.61
2023-04-15T01:36:31.415Z,10.61
2023-04-15T01:38:58.484Z,10.60
2023-04-15T01:41:28.229Z,10.60
2023-04-15T01:43:55.189Z,10.59
2023-04-15T01:46:23.106Z,10.65
2023-04-15T01:48:49.694Z,10.63
2023-04-15T01:51:16.589Z,10.55
2023-04-15T01:53:42.953Z,10.60
2023-04-15T01:56:09.352Z,10.54
2023-04-15T01:58:35.833Z,10.56
2023-04-15T02:01:03.028Z,10.54
2023-04-15T02:03:29.826Z,10.53
2023-04-15T02:05:56.703Z,10.54
2023-04-15T02:08:23.116Z,10.52
2023-04-15T02:10:49.510Z,10.43
2023-04-15T02:13:16.910Z,10.39
2023-04-15T02:15:50.917Z,10.42
2023-04-15T02:18:17.367Z,10.46
2023-04-15T02:20:44.360Z,10.43
2023-04-15T02:23:11.216Z,10.25
2023-04-15T02:25:39.006Z,10.16
2023-04-15T02:28:06.317Z,10.19
2023-04-15T02:30:33.921Z,10.07
2023-04-15T02:33:01.315Z,10.09
2023-04-15T02:35:27.754Z,10.05
2023-04-15T02:37:54.198Z,9.93
2023-04-15T02:40:20.662Z,9.87
2023-04-15T02:42:47.023Z,10.04
2023-04-15T02:45:13.587Z,9.99
2023-04-15T02:47:43.915Z,9.92
2023-04-15T02:50:12.697Z,10.07
2023-04-15T02:52:42.768Z,10.01
2023-04-15T02:55:09.682Z,9.88
2023-04-15T02:57:40.621Z,9.91
2023-04-15T03:00:09.621Z,10.01
2023-04-15T03:02:38.107Z,9.97
2023-04-15T03:05:06.035Z,9.93
2023-04-15T03:07:32.525Z,9.98
2023-04-15T03:09:58.909Z,9.98
2023-04-15T03:12:25.405Z,9.78
2023-04-15T03:14:51.763Z,9.79
2023-04-15T03:17:18.241Z,9.64
2023-04-15T03:19:44.614Z,9.73
2023-04-15T03:22:11.017Z,9.71
2023-04-15T03:24:37.397Z,9.54
2023-04-15T03:27:03.780Z,9.57
2023-04-15T03:29:30.110Z,9.43
2023-04-15T03:31:56.839Z,9.60
2023-04-15T03:34:23.251Z,9.58
2023-04-15T03:36:49.705Z,9.63
2023-04-15T03:39:16.558Z,9.67
2023-04-15T03:41:42.946Z,9.66
2023-04-15T03:44:09.336Z,9.62
2023-04-15T03:46:35.845Z,9.65
2023-04-15T03:49:02.481Z,9.50
2023-04-15T03:51:29.193Z,9.47
2023-04-15T03:53:56.005Z,9.58
2023-04-15T03:56:22.398Z,9.51
2023-04-15T03:58:48.810Z,9.51
2023-04-15T04:01:15.519Z,9.53
2023-04-15T04:03:42.518Z,9.49
2023-04-15T04:06:09.132Z,9.47
2023-04-15T04:08:35.589Z,9.58
2023-04-15T04:11:01.988Z,9.68
2023-04-15T04:13:28.413Z,9.70
2023-04-15T04:15:54.823Z,9.63
2023-04-15T04:18:21.412Z,9.53
2023-04-15T04:20:47.825Z,9.54
2023-04-15T04:23:14.265Z,9.46
2023-04-15T04:25:40.652Z,9.47
2023-04-15T04:28:07.323Z,9.39
2023-04-15T04:30:33.728Z,9.41
2023-04-15T04:33:01.261Z,9.41
2023-04-15T04:35:27.722Z,9.31
2023-04-15T04:37:54.156Z,9.40
2023-04-15T04:40:20.688Z,9.41
2023-04-15T04:42:47.615Z,9.49
2023-04-15T04:45:14.091Z,9.37
2023-04-15T04:47:40.692Z,9.42
2023-04-15T04:50:08.172Z,9.39
2023-04-15T04:52:34.577Z,9.37
2023-04-15T04:55:01.155Z,9.39
2023-04-15T04:57:27.492Z,9.39
2023-04-15T04:59:53.920Z,9.42
2023-04-15T05:02:20.544Z,9.39
2023-04-15T05:04:47.217Z,9.35
2023-04-15T05:07:13.676Z,9.23
2023-04-15T05:09:40.051Z,9.30
2023-04-15T05:12:07.758Z,9.38
2023-04-15T05:14:34.209Z,9.37
2023-04-15T05:17:00.703Z,9.37
2023-04-15T05:19:27.060Z,9.39
2023-04-15T05:21:53.432Z,9.39
2023-04-15T05:24:19.831Z,9.45
2023-04-15T05:26:46.338Z,9.45
2023-04-15T05:29:12.752Z,9.45
2023-04-15T05:31:39.281Z,9.38
2023-04-15T05:34:07.042Z,9.39
2023-04-15T05:36:33.415Z,9.51
2023-04-15T05:38:59.955Z,9.45
2023-04-15T05:41:26.465Z,9.58
2023-04-15T05:43:52.970Z,9.68
2023-04-15T05:46:19.623Z,9.70
2023-04-15T05:48:46.055Z,9.72
2023-04-15T05:51:12.563Z,9.70
2023-04-15T05:53:38.929Z,9.59
2023-04-15T05:56:05.649Z,9.70
2023-04-15T05:58:32.010Z,9.84
2023-04-15T06:00:58.720Z,9.87
2023-04-15T06:03:25.527Z,9.95
2023-04-15T06:05:52.165Z,9.99
2023-04-15T06:08:18.876Z,10.04
2023-04-15T06:10:46.036Z,10.04
2023-04-15T06:13:12.997Z,10.04
2023-04-15T06:15:39.409Z,10.02
2023-04-15T06:18:05.796Z,10.10
2023-04-15T06:20:32.614Z,10.22
2023-04-15T06:22:59.138Z,10.29
2023-04-15T06:25:25.539Z,10.34
2023-04-15T06:27:51.918Z,10.40
2023-04-15T06:30:18.458Z,10.49
2023-04-15T06:32:45.084Z,10.51
2023-04-15T06:35:11.619Z,10.61
2023-04-15T06:37:38.022Z,10.68
2023-04-15T06:40:05.211Z,10.67
2023-04-15T06:42:32.108Z,10.68
2023-04-15T06:44:58.597Z,10.70
2023-04-15T06:47:25.052Z,10.72
2023-04-15T06:49:51.874Z,10.86
2023-04-15T06:52:18.370Z,11.03
2023-04-15T06:54:44.763Z,11.21
2023-04-15T06:57:11.212Z,11.24
2023-04-15T06:59:37.541Z,11.32
2023-04-15T07:02:04.528Z,11.38
2023-04-15T07:04:31.542Z,11.47
2023-04-15T07:06:58.050Z,11.58
2023-04-15T07:09:24.778Z,11.58
2023-04-15T07:11:51.479Z,11.63
2023-04-15T07:14:18.117Z,11.73
2023-04-15T07:16:44.558Z,11.82
2023-04-15T07:19:11.591Z,11.88
2023-04-15T07:21:39.464Z,11.95
2023-04-15T07:24:07.734Z,12.03
2023-04-15T07:26:34.090Z,12.00
2023-04-15T07:29:00.595Z,12.09
2023-04-15T07:31:27.419Z,12.06
2023-04-15T07:33:53.836Z,12.09
2023-04-15T07:36:20.731Z,12.14
2023-04-15T07:38:47.574Z,12.19
2023-04-15T07:41:14.230Z,12.22
2023-04-15T07:43:40.638Z,12.20
2023-04-15T07:46:07.140Z,12.36
2023-04-15T07:48:34.494Z,12.45
2023-04-15T07:51:02.725Z,12.61
2023-04-15T07:53:29.160Z,12.65
2023-04-15T07:55:55.901Z,12.60
2023-04-15T07:58:22.273Z,12.55
2023-04-15T08:00:48.956Z,12.57
2023-04-15T08:03:15.584Z,12.44
2023-04-15T08:05:42.163Z,12.43
2023-04-15T08:08:08.918Z,12.40
2023-04-15T08:10:35.569Z,12.49
2023-04-15T08:13:02.166Z,12.42
2023-04-15T08:15:28.688Z,12.48
2023-04-15T08:17:55.152Z,12.53
2023-04-15T08:20:21.684Z,12.61
2023-04-15T08:22:51.774Z,12.69
2023-04-15T08:25:19.817Z,12.80
2023-04-15T08:27:46.558Z,12.95
2023-04-15T08:30:13.906Z,12.99
2023-04-15T08:32:46.213Z,13.08
2023-04-15T08:35:13.110Z,13.07
2023-04-15T08:37:39.472Z,13.20
2023-04-15T08:40:06.694Z,13.25
2023-04-15T08:42:48.142Z,13.23
2023-04-15T08:45:15.131Z,13.29
2023-04-15T08:47:44.006Z,13.31
2023-04-15T08:50:11.782Z,13.40
2023-04-15T08:52:39.739Z,13.41
2023-04-15T08:55:09.631Z,13.36
2023-04-15T08:57:36.901Z,13.42
2023-04-15T09:00:05.612Z,13.47
2023-04-15T09:02:32.464Z,13.47
2023-04-15T09:04:58.875Z,13.40
2023-04-15T09:07:25.527Z,13.45
2023-04-15T09:09:52.301Z,13.63
2023-04-15T09:12:18.754Z,13.57
2023-04-15T09:14:47.302Z,13.61
2023-04-15T09:17:13.903Z,13.62
2023-04-15T09:19:40.283Z,13.66
2023-04-15T09:22:06.787Z,13.67
2023-04-15T09:24:39.142Z,13.71
2023-04-15T09:27:06.417Z,13.71
2023-04-15T09:29:32.999Z,13.73
2023-04-15T09:32:15.713Z,13.87
2023-04-15T09:34:43.192Z,13.92
2023-04-15T09:37:10.875Z,13.96
2023-04-15T09:39:50.932Z,13.91
2023-04-15T09:42:24.101Z,13.95
2023-04-15T09:44:52.126Z,14.05
2023-04-15T09:47:32.101Z,13.97
2023-04-15T09:50:00.403Z,13.95
2023-04-15T09:52:27.302Z,14.07
2023-04-15T09:54:56.472Z,14.20
2023-04-15T09:57:23.835Z,14.26
2023-04-15T09:59:51.282Z,14.33
2023-04-15T10:02:21.255Z,14.25
2023-04-15T10:04:48.853Z,14.33
2023-04-15T10:07:15.687Z,14.43
2023-04-15T10:09:45.688Z,14.41
2023-04-15T10:12:12.549Z,14.47
2023-04-15T10:14:41.501Z,14.45
2023-04-15T10:17:11.013Z,14.52
2023-04-15T10:19:38.087Z,14.49
2023-04-15T10:22:04.795Z,14.46
2023-04-15T10:24:32.222Z,14.53
2023-04-15T10:26:59.945Z,14.56
2023-04-15T10:29:29.229Z,14.69
2023-04-15T10:31:56.760Z,14.76
2023-04-15T10:34:24.795Z,14.74
2023-04-15T10:36:51.910Z,14.80
2023-04-15T10:39:33.934Z,14.83
2023-04-15T10:42:10.869Z,14.81
2023-04-15T10:44:38.944Z,14.82
2023-04-15T10:47:12.446Z,14.94
2023-04-15T10:49:47.833Z,15.10
2023-04-15T10:52:16.198Z,15.26
2023-04-15T10:54:42.687Z,15.29
2023-04-15T10:57:15.437Z,15.38
2023-04-15T11:00:04.550Z,15.36
2023-04-15T11:02:48.906Z,15.29
2023-04-15T11:05:19.179Z,15.35
2023-04-15T11:07:58.579Z,15.40
2023-04-15T11:10:31.211Z,15.40
2023-04-15T11:13:02.676Z,15.57
2023-04-15T11:15:42.987Z,15.59
2023-04-15T11:18:10.146Z,15.71
2023-04-15T11:20:37.166Z,15.86
2023-04-15T11:23:14.777Z,15.94
2023-04-15T11:25:43.006Z,15.87
2023-04-15T11:28:09.917Z,15.73
2023-04-15T11:30:38.028Z,15.74
2023-04-15T11:33:06.695Z,15.85
2023-04-15T11:35:33.486Z,15.93
2023-04-15T11:38:08.576Z,15.93
2023-04-15T11:40:35.761Z,15.97
2023-04-15T11:43:11.160Z,16.02
2023-04-15T11:45:47.589Z,16.03
2023-04-15T11:48:14.460Z,16.06
2023-04-15T11:50:41.540Z,16.04
2023-04-15T11:53:12.814Z,16.07
2023-04-15T11:55:44.081Z,16.08
2023-04-15T11:58:19.529Z,15.99
2023-04-15T12:00:48.181Z,16.03
2023-04-15T12:03:30.424Z,15.97
2023-04-15T12:06:21.653Z,16.03
2023-04-15T12:09:00.829Z,16.08
2023-04-15T12:11:27.138Z,16.16
2023-04-15T12:14:18.401Z,16.20
2023-04-15T12:16:50.040Z,16.20
2023-04-15T12:19:22.696Z,16.18
2023-04-15T12:21:49.282Z,16.29
2023-04-15T12:24:19.737Z,16.29
2023-04-15T12:26:48.776Z,16.28
2023-04-15T12:29:17.370Z,16.27
2023-04-15T12:31:52.952Z,16.22
2023-04-15T12:34:27.972Z,16.20
2023-04-15T12:36:54.944Z,16.23
2023-04-15T12:39:25.832Z,16.15
2023-04-15T12:41:52.873Z,16.08
2023-04-15T12:44:19.823Z,16.12
2023-04-15T12:46:46.763Z,16.19
2023-04-15T12:49:14.843Z,16.20
2023-04-15T12:51:41.686Z,16.14
2023-04-15T12:54:08.084Z,15.92
2023-04-15T12:56:34.499Z,15.86
2023-04-15T12:59:00.862Z,15.78
2023-04-15T13:01:27.281Z,15.72
2023-04-15T13:03:53.804Z,15.57
2023-04-15T13:06:20.230Z,15.37
2023-04-15T13:08:57.404Z,15.38
2023-04-15T13:11:25.292Z,15.32
2023-04-15T13:13:52.862Z,15.27
2023-04-15T13:16:19.533Z,15.14
2023-04-15T13:18:46.203Z,15.01
2023-04-15T13:21:13.104Z,14.84
2023-04-15T13:23:39.605Z,14.79
2023-04-15T13:26:05.992Z,14.61
2023-04-15T13:28:32.389Z,14.44
2023-04-15T13:31:00.231Z,14.33
2023-04-15T13:33:27.117Z,14.26
2023-04-15T13:35:53.474Z,14.32
2023-04-15T13:38:20.336Z,14.26
2023-04-15T13:40:46.766Z,14.34
2023-04-15T13:43:13.095Z,14.22
2023-04-15T13:45:39.710Z,14.22
2023-04-15T13:48:06.404Z,14.35
2023-04-15T13:50:32.755Z,14.32
2023-04-15T13:52:59.111Z,14.36
2023-04-15T13:55:27.133Z,14.42
2023-04-15T13:57:54.417Z,14.41
2023-04-15T14:00:21.054Z,14.47
2023-04-15T14:02:47.520Z,14.56
2023-04-15T14:05:14.050Z,14.67
2023-04-15T14:07:40.933Z,14.80
2023-04-15T14:10:07.876Z,14.93
2023-04-15T14:12:34.321Z,14.90
2023-04-15T14:15:00.826Z,14.91
2023-04-15T14:17:27.425Z,14.92
2023-04-15T14:19:53.917Z,14.93
2023-04-15T14:22:20.307Z,14.98
2023-04-15T14:24:48.692Z,15.02
2023-04-15T14:27:16.385Z,15.11
2023-04-15T14:29:42.843Z,15.14
2023-04-15T14:32:12.011Z,15.24
2023-04-15T14:34:39.298Z,15.38
2023-04-15T14:37:06.025Z,15.55
2023-04-15T14:39:32.454Z,15.62
2023-04-15T14:41:58.957Z,15.75
2023-04-15T14:44:25.393Z,15.73
2023-04-15T14:46:52.208Z,15.73
2023-04-15T14:49:18.651Z,15.69
2023-04-15T14:51:46.171Z,15.65
2023-04-15T14:54:12.564Z,15.60
2023-04-15T14:56:39.052Z,15.63
2023-04-15T14:59:06.143Z,15.64
2023-04-15T15:01:33.589Z,15.66
2023-04-15T15:04:00.264Z,15.60
2023-04-15T15:06:26.791Z,15.59
2023-04-15T15:08:53.218Z,15.55
2023-04-15T15:11:19.629Z,15.50
2023-04-15T15:13:46.025Z,15.46
2023-04-15T15:16:14.472Z,15.37
2023-04-15T15:18:41.156Z,15.31
2023-04-15T15:21:07.584Z,15.25
2023-04-15T15:23:33.980Z,15.23
2023-04-15T15:26:00.493Z,15.26
2023-04-15T15:28:26.999Z,15.29
2023-04-15T15:30:53.503Z,15.25
2023-04-15T15:33:20.721Z,15.28
2023-04-15T15:35:47.192Z,15.28
2023-04-15T15:38:13.609Z,15.30
2023-04-15T15:40:40.280Z,15.25
2023-04-15T15:43:06.699Z,15.17
2023-04-15T15:45:33.642Z,15.07
2023-04-15T15:48:02.165Z,15.05
2023-04-15T15:50:28.695Z,15.00
2023-04-15T15:52:55.353Z,14.92
2023-04-15T15:55:21.820Z,14.88
2023-04-15T15:57:48.368Z,14.82
2023-04-15T16:00:14.967Z,14.76
2023-04-15T16:05:12.673Z,14.72
2023-04-15T16:07:39.081Z,14.67
2023-04-15T16:10:06.244Z,14.63
2023-04-15T16:12:35.051Z,14.62
2023-04-15T16:15:01.638Z,14.59
2023-04-15T16:17:28.152Z,14.58
2023-04-15T16:20:00.398Z,14.60
2023-04-15T16:22:27.622Z,14.58
2023-04-15T16:24:54.103Z,14.56
2023-04-15T16:27:20.847Z,14.55
2023-04-15T16:29:47.268Z,14.59
2023-04-15T16:32:13.821Z,14.57
2023-04-15T16:34:41.244Z,14.56
2023-04-15T16:37:07.801Z,14.57
2023-04-15T16:39:34.205Z,14.54
2023-04-15T16:42:02.171Z,14.55
2023-04-15T16:44:28.669Z,14.54
2023-04-15T16:46:55.177Z,14.51
2023-04-15T16:49:21.593Z,14.53
2023-04-15T16:51:47.960Z,14.58
2023-04-15T16:54:14.326Z,14.64
2023-04-15T16:56:40.884Z,14.69
2023-04-15T16:59:07.276Z,14.69
2023-04-15T17:01:33.752Z,14.66
2023-04-15T17:04:00.524Z,14.64
2023-04-15T17:06:27.012Z,14.60
2023-04-15T17:08:53.384Z,14.60
2023-04-15T17:11:19.935Z,14.47
2023-04-15T17:13:47.516Z,14.46
2023-04-15T17:16:13.998Z,14.42
2023-04-15T17:18:40.652Z,14.39
2023-04-15T17:21:07.106Z,14.35
2023-04-15T17:23:33.553Z,14.42
2023-04-15T17:25:59.928Z,14.37
2023-04-15T17:28:26.326Z,14.28
2023-04-15T17:30:52.855Z,14.33
2023-04-15T17:33:52.948Z,14.34
2023-04-15T17:36:05.883Z,14.32
2023-04-15T17:38:32.363Z,14.27
2023-04-15T17:40:58.989Z,14.29
2023-04-15T17:43:25.340Z,14.30
2023-04-15T17:45:51.858Z,14.25
2023-04-15T17:48:18.242Z,14.24
2023-04-15T17:50:44.642Z,14.23
2023-04-15T17:53:11.214Z,14.14
2023-04-15T17:55:37.752Z,14.13
2023-04-15T17:58:04.116Z,14.12
2023-04-15T18:00:30.692Z,14.09
2023-04-15T18:02:57.382Z,14.08
2023-04-15T18:05:24.064Z,14.07
2023-04-15T18:07:52.100Z,14.00
2023-04-15T18:10:19.652Z,13.97
2023-04-15T18:12:46.778Z,13.93
2023-04-15T18:15:14.455Z,13.95
2023-04-15T18:17:40.982Z,13.87
2023-04-15T18:20:07.728Z,13.82
2023-04-15T18:22:34.130Z,13.73
2023-04-15T18:25:04.136Z,13.74
2023-04-15T18:27:34.544Z,13.71
2023-04-15T18:30:01.164Z,13.67
2023-04-15T18:32:31.643Z,13.66
2023-04-15T18:34:58.405Z,13.70
2023-04-15T18:37:26.138Z,13.63
2023-04-15T18:39:52.649Z,13.63
2023-04-15T18:42:19.803Z,13.67
2023-04-15T18:44:46.236Z,13.66
2023-04-15T18:47:12.708Z,13.55
2023-04-15T18:49:39.224Z,13.47
2023-04-15T18:52:06.542Z,13.51
2023-04-15T18:54:33.210Z,13.50
2023-04-15T18:56:59.569Z,13.48
2023-04-15T18:59:30.181Z,13.42
2023-04-15T19:01:58.740Z,13.47
2023-04-15T19:04:25.504Z,13.38
2023-04-15T19:06:51.984Z,13.36
2023-04-15T19:09:18.479Z,13.33
2023-04-15T19:11:44.954Z,13.27
2023-04-15T19:14:11.683Z,13.30
2023-04-15T19:16:38.155Z,13.28
2023-04-15T19:19:06.570Z,13.36
2023-04-15T19:21:33.336Z,13.27
2023-04-15T19:24:00.727Z,13.24
2023-04-15T19:26:27.362Z,13.25
2023-04-15T19:28:53.869Z,13.22
2023-04-15T19:31:20.584Z,13.22
2023-04-15T19:33:47.040Z,13.18
2023-04-15T19:36:13.431Z,13.17
2023-04-15T19:38:40.073Z,13.13
2023-04-15T19:41:06.546Z,13.22
2023-04-15T19:43:33.067Z,13.21
2023-04-15T19:45:59.636Z,13.18
2023-04-15T19:48:26.152Z,13.16
2023-04-15T19:50:52.680Z,13.12
2023-04-15T19:53:19.093Z,13.09
2023-04-15T19:55:47.145Z,13.19
2023-04-15T19:58:13.723Z,13.13
2023-04-15T20:00:40.634Z,13.15
2023-04-15T20:03:07.582Z,13.07
2023-04-15T20:05:34.293Z,13.07
2023-04-15T20:08:01.648Z,13.01
2023-04-15T20:10:28.361Z,13.04
2023-04-15T20:12:54.815Z,13.06
2023-04-15T20:15:23.398Z,13.04
2023-04-15T20:17:50.016Z,12.95
2023-04-15T20:20:16.572Z,12.94
2023-04-15T20:22:42.986Z,12.92
2023-04-15T20:25:09.627Z,12.90
2023-04-15T20:27:36.071Z,12.89
2023-04-15T20:30:04.659Z,12.90
2023-04-15T20:32:35.262Z,12.90
2023-04-15T20:35:03.336Z,12.96
2023-04-15T20:37:32.951Z,12.83
2023-04-15T20:40:00.286Z,12.87
2023-04-15T20:42:26.755Z,12.82
2023-04-15T20:44:53.107Z,12.85
2023-04-15T20:47:19.666Z,12.83
2023-04-15T20:49:47.284Z,12.81
2023-04-15T20:52:13.653Z,12.81
2023-04-15T20:54:40.119Z,12.76
2023-04-15T20:57:06.524Z,12.82
2023-04-15T20:59:34.635Z,12.76
2023-04-15T21:02:01.354Z,12.82
2023-04-15T21:04:27.932Z,12.77
2023-04-15T21:06:54.357Z,12.78
2023-04-15T21:09:20.931Z,12.77
2023-04-15T21:12:00.546Z,12.73
2023-04-15T21:14:27.312Z,12.75
2023-04-15T21:16:53.686Z,12.77
2023-04-15T21:19:20.083Z,12.71
2023-04-15T21:21:46.524Z,12.72
2023-04-15T21:24:12.925Z,12.73
2023-04-15T21:26:39.282Z,12.72
2023-04-15T21:29:07.851Z,12.60
2023-04-15T21:31:36.065Z,12.67
2023-04-15T21:34:02.504Z,12.64
2023-04-15T21:36:28.873Z,12.62
2023-04-15T21:38:55.338Z,12.72
2023-04-15T21:41:21.733Z,12.72
2023-04-15T21:43:48.232Z,12.62
2023-04-15T21:46:21.864Z,12.68
2023-04-15T21:48:51.559Z,12.67
2023-04-15T21:51:17.939Z,12.65
2023-04-15T21:53:44.420Z,12.65
2023-04-15T21:56:11.074Z,12.60
2023-04-15T21:58:37.562Z,12.60
2023-04-15T22:01:04.666Z,12.53
2023-04-15T22:03:35.224Z,12.52
2023-04-15T22:06:03.004Z,12.37
2023-04-15T22:08:30.996Z,12.34
2023-04-15T22:11:00.145Z,12.34
2023-04-15T22:13:26.578Z,12.26
2023-04-15T22:15:52.991Z,12.16
2023-04-15T22:18:19.339Z,12.13
2023-04-15T22:20:45.891Z,12.09
2023-04-15T22:23:12.334Z,12.02
2023-04-15T22:25:38.766Z,12.02
2023-04-15T22:28:09.425Z,11.92
2023-04-15T22:30:40.011Z,11.89
2023-04-15T22:33:07.838Z,11.86
2023-04-15T22:35:36.070Z,11.79
2023-04-15T22:38:03.734Z,11.84
2023-04-15T22:40:30.206Z,11.80
2023-04-15T22:42:56.741Z,11.76
2023-04-15T22:45:23.472Z,11.75
2023-04-15T22:47:49.909Z,11.73
2023-04-15T22:50:16.465Z,11.67
2023-04-15T22:52:46.008Z,11.58
2023-04-15T22:55:12.901Z,11.56
2023-04-15T22:57:39.264Z,11.50
2023-04-15T23:00:07.245Z,11.53
2023-04-15T23:02:34.700Z,11.44
2023-04-15T23:05:04.592Z,11.37
2023-04-15T23:07:39.601Z,11.37
2023-04-15T23:10:06.929Z,11.36
2023-04-15T23:12:33.374Z,11.39
2023-04-15T23:14:59.784Z,11.31
2023-04-15T23:17:26.719Z,11.23
2023-04-15T23:19:53.161Z,11.24
2023-04-15T23:22:19.545Z,11.24
2023-04-15T23:24:46.107Z,11.11
2023-04-15T23:27:12.497Z,10.96
2023-04-15T23:29:38.937Z,11.04
2023-04-15T23:32:05.870Z,11.04
2023-04-15T23:34:32.265Z,11.07
2023-04-15T23:36:58.617Z,10.92
2023-04-15T23:39:25.404Z,10.86
2023-04-15T23:41:51.900Z,10.84
2023-04-15T23:44:18.265Z,10.88
2023-04-15T23:46:44.734Z,10.90
2023-04-15T23:49:11.248Z,10.86
2023-04-15T23:51:37.730Z,10.85
2023-04-15T23:54:04.133Z,10.83
2023-04-15T23:56:31.404Z,10.88
2023-04-15T23:58:57.833Z,10.78
